Eglin AFB, Florida
Current Conditions -  °F | °C
As of 9:55 AM on Sunday 21 Dec 2014 (Local Time) from KVPS Reporting Station
Haze Haze  
Wind Chill: 55°   Ceiling: 500
Heat Index: 55°   Visibility: 3mi
Dew Point: 53°   Wind: 6mph
Humidity: 94%   Direction: 60°ENE
Pressure: 30.11"   Gusts: NA
Location:  30.46°N, 86.55°W
Report Text: KVPS 211555Z 06005KT 3SM BR OVC005 13/12 A3011 RMK AO2A SLP198 T01280118 $
Loading
Personal Weather Stations






























Interactive Weather Map New forecast layout! Learn more

10-Day Weather Forecast

Advertisements
Track Severe Weather on mobile